createdAt,value
2022-11-27T00:00:44.168Z,10.90
2022-11-27T00:03:11.148Z,8.00
2022-11-27T00:17:53.400Z,8.00
2022-11-27T00:20:20.031Z,8.00
2022-11-27T00:25:13.756Z,7.90
2022-11-27T00:27:40.373Z,7.80
2022-11-27T00:30:08.558Z,7.90
2022-11-27T00:35:02.823Z,7.90
2022-11-27T01:09:23.854Z,7.70
2022-11-27T01:14:18.950Z,7.70
2022-11-27T01:19:14.483Z,7.80
2022-11-27T01:21:41.568Z,7.90
2022-11-27T01:24:10.109Z,7.80
2022-11-27T01:26:37.464Z,7.70
2022-11-27T01:29:04.053Z,7.80
2022-11-27T01:31:33.263Z,10.80
2022-11-27T01:34:02.721Z,7.60
2022-11-27T01:36:30.285Z,7.70
2022-11-27T01:38:57.243Z,7.70
2022-11-27T01:41:26.722Z,7.60
2022-11-27T01:43:55.824Z,7.70
2022-11-27T01:46:34.858Z,7.70
2022-11-27T01:49:15.895Z,7.70
2022-11-27T01:51:52.196Z,7.70
2022-11-27T01:54:20.835Z,7.60
2022-11-27T01:56:51.704Z,7.60
2022-11-27T01:59:19.687Z,7.60
2022-11-27T02:09:07.367Z,7.60
2022-11-27T02:11:42.370Z,7.50
2022-11-27T02:14:17.829Z,7.50
2022-11-27T02:16:57.156Z,7.50
2022-11-27T02:19:50.227Z,7.50
2022-11-27T02:28:09.637Z,7.30
2022-11-27T02:30:41.688Z,7.30
2022-11-27T02:33:12.613Z,7.20
2022-11-27T02:35:46.342Z,7.10
2022-11-27T02:38:18.122Z,7.30
2022-11-27T02:40:52.614Z,7.10
2022-11-27T02:43:23.748Z,7.00
2022-11-27T02:45:52.246Z,6.90
2022-11-27T02:48:23.435Z,7.00
2022-11-27T02:50:51.762Z,7.20
2022-11-27T02:53:22.944Z,7.00
2022-11-27T02:55:51.787Z,6.90
2022-11-27T02:58:22.008Z,7.10
2022-11-27T03:00:50.347Z,6.90
2022-11-27T03:03:21.159Z,7.00
2022-11-27T03:05:51.208Z,6.90
2022-11-27T03:08:23.282Z,7.70
2022-11-27T03:10:55.214Z,6.90
2022-11-27T03:16:04.325Z,6.80
2022-11-27T03:18:39.115Z,7.00
2022-11-27T03:21:18.549Z,6.90
2022-11-27T03:26:12.469Z,6.50
2022-11-27T03:28:40.611Z,6.90
2022-11-27T03:31:09.266Z,6.90
2022-11-27T03:33:36.046Z,7.00
2022-11-27T03:41:05.215Z,6.80
2022-11-27T03:43:40.283Z,6.80
2022-11-27T03:46:12.502Z,6.60
2022-11-27T03:48:48.255Z,6.70
2022-11-27T03:51:20.786Z,6.80
2022-11-27T03:53:58.842Z,6.80
2022-11-27T03:56:33.624Z,6.70
2022-11-27T03:59:06.511Z,6.60
2022-11-27T04:01:34.323Z,6.70
2022-11-27T04:06:28.113Z,6.60
2022-11-27T04:08:54.761Z,6.30
2022-11-27T04:11:21.378Z,6.60
2022-11-27T04:13:48.060Z,6.60
2022-11-27T04:16:14.863Z,6.70
2022-11-27T04:18:42.219Z,6.50
2022-11-27T04:21:08.994Z,6.50
2022-11-27T04:23:36.973Z,5.20
2022-11-27T04:28:30.744Z,6.60
2022-11-27T04:30:58.122Z,6.40
2022-11-27T04:33:26.095Z,6.50
2022-11-27T04:35:54.089Z,6.40
2022-11-27T04:38:22.055Z,6.30
2022-11-27T04:40:51.083Z,6.50
2022-11-27T04:43:17.693Z,6.10
2022-11-27T04:45:44.609Z,6.20
2022-11-27T04:48:11.562Z,6.00
2022-11-27T04:53:06.010Z,6.00
2022-11-27T04:57:59.611Z,5.90
2022-11-27T05:10:15.192Z,5.60
2022-11-27T05:15:09.657Z,5.70
2022-11-27T05:20:03.931Z,5.30
2022-11-27T05:22:30.564Z,5.40
2022-11-27T05:27:24.819Z,6.90
2022-11-27T05:32:18.503Z,5.30
2022-11-27T05:34:45.105Z,5.20
2022-11-27T05:39:45.979Z,4.90
2022-11-27T05:44:40.689Z,5.10
2022-11-27T05:49:34.755Z,5.00
2022-11-27T05:56:55.403Z,4.80
2022-11-27T06:01:49.819Z,5.40
2022-11-27T06:11:41.109Z,4.40
2022-11-27T06:14:08.527Z,4.90
2022-11-27T06:16:35.334Z,4.20
2022-11-27T06:19:02.696Z,4.30
2022-11-27T06:21:29.359Z,4.30
2022-11-27T06:23:56.691Z,4.30
2022-11-27T06:26:24.839Z,4.30
2022-11-27T06:28:51.970Z,4.10
2022-11-27T06:31:21.884Z,4.20
2022-11-27T06:33:50.349Z,4.60
2022-11-27T06:36:18.321Z,4.20
2022-11-27T06:38:45.904Z,4.10
2022-11-27T06:41:14.072Z,4.20
2022-11-27T06:46:10.841Z,4.00
2022-11-27T06:51:06.324Z,4.00
2022-11-27T06:53:36.829Z,4.20
2022-11-27T06:56:04.310Z,4.10
2022-11-27T06:58:31.438Z,2.20
2022-11-27T07:00:59.542Z,4.20
2022-11-27T07:03:27.394Z,4.10
2022-11-27T07:08:22.013Z,2.20
2022-11-27T07:10:49.483Z,4.20
2022-11-27T07:13:16.415Z,4.00
2022-11-27T07:15:43.323Z,4.00
2022-11-27T07:18:11.677Z,4.10
2022-11-27T07:23:05.453Z,3.90
2022-11-27T07:25:32.371Z,4.00
2022-11-27T07:27:59.756Z,3.90
2022-11-27T07:30:26.633Z,3.90
2022-11-27T07:32:53.796Z,4.00
2022-11-27T07:35:20.469Z,4.20
2022-11-27T07:37:47.430Z,3.70
2022-11-27T07:40:15.059Z,4.20
2022-11-27T07:45:10.966Z,4.10
2022-11-27T07:47:38.704Z,4.10
2022-11-27T07:50:07.706Z,4.80
2022-11-27T07:52:41.530Z,4.30
2022-11-27T07:55:09.489Z,4.30
2022-11-27T07:57:36.290Z,4.70
2022-11-27T08:00:04.530Z,4.00
2022-11-27T08:02:31.922Z,4.30
2022-11-27T08:04:58.752Z,4.40
2022-11-27T08:07:27.408Z,4.60
2022-11-27T08:12:22.704Z,4.70
2022-11-27T08:17:16.528Z,4.70
2022-11-27T08:19:46.187Z,5.10
2022-11-27T08:22:16.099Z,4.70
2022-11-27T08:24:43.158Z,4.60
2022-11-27T08:27:16.765Z,5.10
2022-11-27T08:32:11.480Z,4.90
2022-11-27T08:34:38.947Z,4.90
2022-11-27T08:37:07.268Z,4.90
2022-11-27T08:39:33.953Z,5.00
2022-11-27T08:42:01.075Z,5.20
2022-11-27T08:44:27.983Z,5.10
2022-11-27T08:46:54.746Z,5.20
2022-11-27T08:49:22.624Z,5.00
2022-11-27T08:56:53.662Z,5.20
2022-11-27T08:59:24.013Z,5.20
2022-11-27T09:01:59.635Z,5.30
2022-11-27T09:04:40.713Z,5.30
2022-11-27T09:10:09.369Z,5.30
2022-11-27T09:12:43.546Z,5.40
2022-11-27T09:17:51.132Z,5.60
2022-11-27T09:20:33.517Z,5.30
2022-11-27T09:23:02.762Z,5.40
2022-11-27T09:25:35.766Z,5.60
2022-11-27T09:28:07.087Z,5.30
2022-11-27T09:30:40.341Z,5.60
2022-11-27T09:33:41.353Z,5.90
2022-11-27T09:36:13.413Z,5.70
2022-11-27T09:38:49.858Z,5.80
2022-11-27T09:41:39.404Z,5.40
2022-11-27T09:44:33.344Z,5.80
2022-11-27T09:47:14.795Z,5.70
2022-11-27T09:49:55.334Z,5.90
2022-11-27T09:52:43.218Z,6.10
2022-11-27T09:55:20.951Z,5.80
2022-11-27T09:58:00.636Z,6.10
2022-11-27T10:00:34.421Z,6.00
2022-11-27T10:03:02.851Z,6.10
2022-11-27T10:05:42.640Z,6.00
2022-11-27T10:08:30.208Z,6.20
2022-11-27T10:11:12.397Z,6.10
2022-11-27T10:13:58.787Z,6.30
2022-11-27T10:16:32.152Z,6.30
2022-11-27T10:19:08.104Z,6.60
2022-11-27T10:21:44.365Z,6.50
2022-11-27T10:24:20.319Z,6.60
2022-11-27T10:26:51.076Z,6.70
2022-11-27T10:29:34.906Z,6.60
2022-11-27T10:32:26.747Z,6.90
2022-11-27T10:35:00.939Z,6.70
2022-11-27T10:37:32.191Z,9.10
2022-11-27T10:40:02.587Z,6.70
2022-11-27T10:42:37.064Z,6.90
2022-11-27T10:45:07.865Z,7.00
2022-11-27T10:47:37.778Z,6.70
2022-11-27T10:50:12.764Z,6.90
2022-11-27T10:52:52.427Z,6.90
2022-11-27T10:55:28.302Z,6.90
2022-11-27T10:58:06.335Z,7.10
2022-11-27T11:00:33.969Z,7.10
2022-11-27T11:03:02.570Z,7.20
2022-11-27T11:05:41.313Z,7.20
2022-11-27T11:08:18.430Z,7.30
2022-11-27T11:10:52.265Z,8.60
2022-11-27T11:13:20.513Z,10.10
2022-11-27T11:15:51.926Z,11.50
2022-11-27T11:20:48.686Z,12.90
2022-11-27T11:23:28.013Z,13.10
2022-11-27T11:25:58.355Z,13.20
2022-11-27T11:28:25.952Z,13.20
2022-11-27T11:30:58.051Z,11.80
2022-11-27T11:33:26.391Z,10.80
2022-11-27T11:35:55.197Z,9.90
2022-11-27T11:38:29.416Z,9.60
2022-11-27T11:41:02.692Z,9.30
2022-11-27T11:43:31.542Z,9.20
2022-11-27T11:46:07.701Z,9.20
2022-11-27T11:48:35.850Z,9.30
2022-11-27T11:51:08.710Z,9.30
2022-11-27T11:53:37.295Z,9.40
2022-11-27T11:56:17.748Z,9.90
2022-11-27T11:58:53.850Z,9.30
2022-11-27T12:01:53.391Z,9.20
2022-11-27T12:04:52.348Z,8.70
2022-11-27T12:07:37.805Z,9.00
2022-11-27T12:10:15.909Z,8.80
2022-11-27T12:12:52.647Z,8.70
2022-11-27T12:15:26.934Z,8.70
2022-11-27T12:18:00.666Z,8.60
2022-11-27T12:20:44.028Z,8.40
2022-11-27T12:23:34.261Z,8.20
2022-11-27T12:26:10.618Z,8.20
2022-11-27T12:29:01.179Z,8.20
2022-11-27T12:31:41.546Z,7.70
2022-11-27T12:34:15.086Z,7.60
2022-11-27T12:37:04.524Z,7.50
2022-11-27T12:39:34.638Z,7.50
2022-11-27T12:42:17.819Z,7.60
2022-11-27T12:44:56.495Z,7.70
2022-11-27T12:47:29.070Z,7.60
2022-11-27T12:50:03.253Z,7.60
2022-11-27T12:52:34.234Z,7.80
2022-11-27T12:55:11.717Z,7.70
2022-11-27T12:57:43.558Z,7.80
2022-11-27T13:00:15.785Z,7.60
2022-11-27T13:02:49.566Z,7.60
2022-11-27T13:05:22.052Z,7.60
2022-11-27T13:07:54.130Z,7.50
2022-11-27T13:10:25.938Z,7.60
2022-11-27T13:13:00.865Z,7.50
2022-11-27T13:15:32.850Z,7.20
2022-11-27T13:18:05.977Z,7.40
2022-11-27T13:20:37.981Z,7.50
2022-11-27T13:25:35.995Z,7.40
2022-11-27T13:28:05.262Z,7.00
2022-11-27T13:30:35.241Z,7.40
2022-11-27T13:33:05.773Z,7.40
2022-11-27T13:35:41.209Z,7.40
2022-11-27T13:38:11.703Z,7.40
2022-11-27T13:40:41.723Z,7.30
2022-11-27T13:43:21.340Z,7.20
2022-11-27T13:45:48.679Z,7.00
2022-11-27T13:48:29.606Z,7.60
2022-11-27T13:50:58.587Z,7.20
2022-11-27T13:53:34.255Z,7.30
2022-11-27T13:56:01.259Z,7.20
2022-11-27T13:58:30.535Z,7.20
2022-11-27T14:01:00.369Z,7.70
2022-11-27T14:03:29.362Z,6.90
2022-11-27T14:05:57.681Z,7.30
2022-11-27T14:08:27.066Z,7.20
2022-11-27T14:10:58.109Z,7.10
2022-11-27T14:13:36.827Z,7.00
2022-11-27T14:16:09.146Z,7.10
2022-11-27T14:18:36.602Z,7.10
2022-11-27T14:21:04.939Z,7.30
2022-11-27T14:23:35.403Z,7.20
2022-11-27T14:26:05.389Z,7.00
2022-11-27T14:28:36.150Z,7.10
2022-11-27T14:31:03.360Z,6.70
2022-11-27T14:33:59.669Z,7.30
2022-11-27T14:36:26.171Z,6.70
2022-11-27T14:38:53.005Z,6.80
2022-11-27T14:41:22.746Z,6.90
2022-11-27T14:43:59.474Z,6.90
2022-11-27T14:46:29.157Z,6.80
2022-11-27T14:48:56.286Z,6.70
2022-11-27T14:51:25.700Z,6.70
2022-11-27T14:53:58.203Z,6.60
2022-11-27T14:56:25.841Z,6.40
2022-11-27T14:58:54.734Z,6.40
2022-11-27T15:01:25.693Z,6.50
2022-11-27T15:03:57.202Z,6.50
2022-11-27T15:06:27.576Z,6.60
2022-11-27T15:09:23.553Z,6.80
2022-11-27T15:11:55.716Z,6.50
2022-11-27T15:14:25.101Z,6.40
2022-11-27T15:16:53.440Z,6.10
2022-11-27T15:19:27.049Z,6.20
2022-11-27T15:21:54.621Z,5.70
2022-11-27T15:24:30.785Z,6.10
2022-11-27T15:27:08.593Z,6.00
2022-11-27T15:29:37.178Z,5.10
2022-11-27T15:32:18.163Z,6.20
2022-11-27T15:34:48.855Z,6.30
2022-11-27T15:37:22.927Z,6.30
2022-11-27T15:39:51.179Z,6.10
2022-11-27T15:42:18.533Z,6.20
2022-11-27T15:47:24.194Z,6.20
2022-11-27T15:49:52.555Z,6.20
2022-11-27T15:52:22.612Z,6.40
2022-11-27T15:57:16.780Z,6.10
2022-11-27T15:59:45.094Z,6.60
2022-11-27T16:02:17.463Z,6.50
2022-11-27T16:04:44.811Z,6.10
2022-11-27T16:07:14.882Z,6.00
2022-11-27T16:09:42.369Z,6.00
2022-11-27T16:14:36.469Z,5.90
2022-11-27T16:17:03.864Z,6.10
2022-11-27T16:19:30.895Z,5.80
2022-11-27T16:22:03.852Z,5.80
2022-11-27T16:26:59.236Z,5.90
2022-11-27T16:29:26.338Z,5.70
2022-11-27T16:34:39.070Z,5.70
2022-11-27T16:37:05.965Z,5.80
2022-11-27T16:39:32.642Z,5.60
2022-11-27T16:42:01.461Z,5.70
2022-11-27T16:44:31.027Z,5.70
2022-11-27T16:49:28.927Z,7.40
2022-11-27T16:52:00.425Z,5.60
2022-11-27T16:54:28.828Z,5.80
2022-11-27T16:57:00.618Z,5.50
2022-11-27T16:59:30.428Z,5.70
2022-11-27T17:01:57.261Z,5.50
2022-11-27T17:04:26.071Z,4.10
2022-11-27T17:06:54.779Z,5.60
2022-11-27T17:11:54.292Z,5.70
2022-11-27T17:14:27.141Z,5.50
2022-11-27T17:16:59.626Z,5.40
2022-11-27T17:19:30.241Z,5.40
2022-11-27T17:22:02.124Z,5.20
2022-11-27T17:24:29.041Z,5.50
2022-11-27T17:26:59.125Z,5.40
2022-11-27T17:29:32.228Z,5.60
2022-11-27T17:32:03.838Z,5.40
2022-11-27T17:34:36.854Z,5.10
2022-11-27T17:37:05.808Z,5.20
2022-11-27T17:39:34.084Z,5.40
2022-11-27T17:42:02.606Z,5.20
2022-11-27T17:44:33.588Z,5.10
2022-11-27T17:47:04.543Z,5.10
2022-11-27T17:49:37.028Z,5.10
2022-11-27T17:52:07.191Z,5.10
2022-11-27T17:54:37.723Z,5.00
2022-11-27T17:57:05.667Z,5.20
2022-11-27T17:59:34.092Z,5.20
2022-11-27T18:02:03.028Z,5.10
2022-11-27T18:04:34.004Z,5.00
2022-11-27T18:07:01.971Z,5.10
2022-11-27T18:09:30.597Z,4.80
2022-11-27T18:12:00.425Z,5.20
2022-11-27T18:14:29.712Z,5.00
2022-11-27T18:17:03.743Z,4.90
2022-11-27T18:19:32.242Z,5.00
2022-11-27T18:22:01.381Z,4.90
2022-11-27T18:24:30.923Z,5.00
2022-11-27T18:27:08.860Z,5.00
2022-11-27T18:29:42.063Z,5.10
2022-11-27T18:32:13.475Z,4.80
2022-11-27T18:34:42.175Z,4.90
2022-11-27T18:37:13.210Z,4.90
2022-11-27T18:39:44.454Z,5.00
2022-11-27T18:42:16.000Z,5.10
2022-11-27T18:44:45.121Z,5.20
2022-11-27T18:47:15.388Z,4.70
2022-11-27T18:49:45.146Z,5.10
2022-11-27T18:54:39.533Z,4.80
2022-11-27T18:57:07.719Z,4.80
2022-11-27T18:59:36.278Z,4.80
2022-11-27T19:02:05.044Z,5.00
2022-11-27T19:04:35.306Z,5.00
2022-11-27T19:07:06.361Z,5.00
2022-11-27T19:09:40.254Z,4.80
2022-11-27T19:12:09.310Z,5.20
2022-11-27T19:14:38.639Z,4.50
2022-11-27T19:17:07.945Z,4.60
2022-11-27T19:19:53.953Z,4.30
2022-11-27T19:22:22.496Z,4.70
2022-11-27T19:24:49.145Z,4.60
2022-11-27T19:27:15.998Z,4.40
2022-11-27T19:32:13.746Z,4.40
2022-11-27T19:34:43.645Z,4.30
2022-11-27T19:37:11.828Z,4.20
2022-11-27T19:39:43.573Z,4.40
2022-11-27T19:42:15.073Z,4.80
2022-11-27T19:44:46.260Z,4.20
2022-11-27T19:47:16.500Z,4.30
2022-11-27T19:49:46.736Z,4.40
2022-11-27T19:52:38.387Z,3.20
2022-11-27T19:55:44.785Z,4.40
2022-11-27T19:58:46.768Z,4.50
2022-11-27T20:01:18.211Z,4.70
2022-11-27T20:03:48.970Z,4.60
2022-11-27T20:06:20.811Z,5.10
2022-11-27T20:09:01.051Z,4.40
2022-11-27T20:11:34.802Z,4.40
2022-11-27T20:14:17.827Z,4.70
2022-11-27T20:17:10.581Z,4.60
2022-11-27T20:19:59.194Z,4.60
2022-11-27T20:25:20.406Z,2.10
2022-11-27T20:28:32.722Z,4.60
2022-11-27T20:31:20.679Z,4.60
2022-11-27T20:36:28.575Z,4.70
2022-11-27T20:38:55.728Z,4.60
2022-11-27T20:41:39.093Z,4.50
2022-11-27T20:44:09.252Z,4.50
2022-11-27T20:46:42.730Z,4.40
2022-11-27T20:49:13.344Z,4.50
2022-11-27T20:51:48.349Z,4.50
2022-11-27T20:54:43.638Z,4.60
2022-11-27T21:02:19.268Z,4.90
2022-11-27T21:04:53.292Z,4.60
2022-11-27T21:07:21.920Z,4.70
2022-11-27T21:09:52.270Z,4.40
2022-11-27T21:12:36.840Z,4.30
2022-11-27T21:15:09.601Z,4.10
2022-11-27T21:17:38.822Z,4.50
2022-11-27T21:20:11.333Z,5.10
2022-11-27T21:22:47.122Z,4.30
2022-11-27T21:25:16.397Z,4.50
2022-11-27T21:27:46.623Z,4.60
2022-11-27T21:30:18.371Z,4.50
2022-11-27T21:32:48.830Z,4.50
2022-11-27T21:35:19.998Z,4.60
2022-11-27T21:37:46.944Z,4.90
2022-11-27T21:40:14.022Z,4.40
2022-11-27T21:42:44.810Z,4.60
2022-11-27T21:45:11.755Z,4.50
2022-11-27T21:47:40.969Z,4.60
2022-11-27T21:50:11.256Z,4.40
2022-11-27T21:57:39.616Z,4.70
2022-11-27T22:00:08.046Z,4.40
2022-11-27T22:02:36.303Z,4.50
2022-11-27T22:05:04.191Z,4.50
2022-11-27T22:07:31.197Z,4.40
2022-11-27T22:12:26.190Z,4.40
2022-11-27T22:14:53.239Z,4.40
2022-11-27T22:17:40.944Z,4.50
2022-11-27T22:25:20.255Z,4.50
2022-11-27T22:27:59.397Z,4.40
2022-11-27T22:32:59.468Z,4.40
2022-11-27T22:37:54.512Z,4.40
2022-11-27T22:40:22.348Z,4.30
2022-11-27T22:45:16.702Z,4.30
2022-11-27T22:50:11.158Z,3.90
2022-11-27T22:52:38.571Z,4.00
2022-11-27T22:55:05.745Z,4.20
2022-11-27T22:57:33.859Z,4.20
2022-11-27T23:00:00.660Z,4.50
2022-11-27T23:02:27.689Z,4.20
2022-11-27T23:04:54.482Z,4.10
2022-11-27T23:09:52.875Z,4.70
2022-11-27T23:17:17.852Z,4.20
2022-11-27T23:19:44.536Z,4.20
2022-11-27T23:22:11.349Z,4.00
2022-11-27T23:24:38.223Z,4.20
2022-11-27T23:27:05.638Z,4.50
2022-11-27T23:31:59.649Z,4.10
2022-11-27T23:36:53.422Z,4.10
2022-11-27T23:39:20.097Z,4.10
2022-11-27T23:41:48.759Z,4.30
2022-11-27T23:44:16.867Z,4.00
2022-11-27T23:46:43.792Z,4.00
2022-11-27T23:49:10.481Z,4.00
2022-11-27T23:51:37.200Z,3.90
2022-11-27T23:54:07.593Z,4.10
2022-11-27T23:56:34.475Z,4.00
